Time;durP1;ratioP1;P1;durP2;ratioP2;P2;SDS_P1;SDS_P2;PMS_P1;PMS_P2;Temp;Humidity;BMP_temperature;BMP_pressure;BME280_temperature;BME280_humidity;BME280_pressure;Samples;Min_cycle;Max_cycle;Signal;HPM_P1;HPM_P2
2023/01/26 00:00:59;;;;;;;36.95;17.25;;;-0.10;1.00;;;;;;5054774;28;20254;-67
2023/01/26 00:03:26;;;;;;;35.15;16.00;;;-0.10;1.00;;;;;;5054894;28;20228;-73
2023/01/26 00:05:52;;;;;;;41.85;18.80;;;-0.10;1.00;;;;;;5053134;28;20183;-73
2023/01/26 00:08:18;;;;;;;41.27;15.50;;;-0.20;1.00;;;;;;5054688;28;20644;-72
2023/01/26 00:10:49;;;;;;;32.07;13.40;;;-0.20;1.00;;;;;;5054648;28;20435;-72
2023/01/26 00:13:21;;;;;;;35.53;15.68;;;-0.20;1.00;;;;;;5053507;28;20953;-74
2023/01/26 00:15:47;;;;;;;31.08;16.33;;;-0.20;1.00;;;;;;5052529;28;20202;-72
2023/01/26 00:18:12;;;;;;;32.30;15.87;;;-0.20;1.00;;;;;;5054557;28;20175;-68
2023/01/26 00:20:38;;;;;;;27.50;13.37;;;-0.20;1.00;;;;;;5054488;28;20879;-72
2023/01/26 00:23:04;;;;;;;35.60;17.57;;;-0.20;1.00;;;;;;5054255;28;20175;-67
2023/01/26 00:25:29;;;;;;;32.17;15.57;;;-0.20;1.00;;;;;;5052908;28;20191;-74
2023/01/26 00:27:56;;;;;;;33.97;17.00;;;-0.10;1.00;;;;;;5034621;28;20258;-67
2023/01/26 00:30:22;;;;;;;36.90;16.80;;;-0.10;1.00;;;;;;5034358;28;20159;-66
2023/01/26 00:32:48;;;;;;;40.72;16.15;;;-0.10;1.00;;;;;;5034287;28;20199;-67
2023/01/26 00:35:13;;;;;;;43.17;18.23;;;-0.10;1.00;;;;;;5051869;28;20281;-67
2023/01/26 00:37:42;;;;;;;31.50;16.00;;;0.00;1.00;;;;;;5054101;28;20171;-73
2023/01/26 00:40:09;;;;;;;45.40;19.77;;;0.00;1.00;;;;;;5054340;28;20156;-68
2023/01/26 00:42:35;;;;;;;42.03;18.23;;;0.00;1.00;;;;;;5053630;28;20206;-74
2023/01/26 00:45:01;;;;;;;43.43;17.67;;;-0.10;1.00;;;;;;5052971;28;20234;-68
2023/01/26 00:47:27;;;;;;;39.57;16.67;;;-0.10;1.00;;;;;;5045711;28;20469;-73
2023/01/26 00:49:52;;;;;;;39.97;16.80;;;-0.10;1.00;;;;;;5048604;28;20197;-73
2023/01/26 00:52:18;;;;;;;46.37;16.27;;;0.00;1.00;;;;;;5052688;28;20175;-73
2023/01/26 00:54:44;;;;;;;33.97;17.47;;;0.00;1.00;;;;;;5052951;28;20194;-67
2023/01/26 00:57:09;;;;;;;30.03;15.10;;;0.00;1.00;;;;;;5053633;28;20262;-68
2023/01/26 00:59:35;;;;;;;39.57;16.27;;;-0.10;1.00;;;;;;5053302;28;20229;-74
2023/01/26 01:02:01;;;;;;;35.17;15.70;;;-0.10;1.00;;;;;;5052550;28;20190;-74
2023/01/26 01:04:31;;;;;;;31.73;15.93;;;-0.10;1.00;;;;;;5052711;28;20226;-74
2023/01/26 01:06:57;;;;;;;29.63;15.25;;;-0.10;1.00;;;;;;5053456;28;21270;-74
2023/01/26 01:09:24;;;;;;;33.50;15.88;;;-0.10;1.00;;;;;;5052523;28;20578;-74
2023/01/26 01:11:50;;;;;;;32.90;13.70;;;0.00;1.00;;;;;;5053472;28;20174;-74
2023/01/26 01:14:16;;;;;;;30.05;15.65;;;0.00;1.00;;;;;;5052054;28;20278;-69
2023/01/26 01:16:42;;;;;;;33.00;14.27;;;0.00;1.00;;;;;;5050403;28;20172;-67
2023/01/26 01:19:12;;;;;;;31.92;15.90;;;0.00;1.00;;;;;;5052717;28;20398;-68
2023/01/26 01:21:38;;;;;;;22.20;12.70;;;0.00;1.00;;;;;;5053260;28;20177;-67
2023/01/26 01:24:04;;;;;;;38.47;16.73;;;0.00;1.00;;;;;;5053143;28;20258;-67
2023/01/26 01:26:29;;;;;;;25.73;14.80;;;0.00;1.00;;;;;;5052532;28;20909;-67
2023/01/26 01:28:56;;;;;;;36.20;14.13;;;0.00;1.00;;;;;;5049865;28;20194;-68
2023/01/26 01:31:23;;;;;;;24.02;13.57;;;0.00;1.00;;;;;;5033234;28;20194;-74
2023/01/26 01:33:48;;;;;;;31.15;12.02;;;0.00;1.00;;;;;;5032130;28;20214;-67
2023/01/26 01:36:16;;;;;;;26.20;13.30;;;0.00;1.00;;;;;;5032001;28;20199;-74
2023/01/26 01:38:43;;;;;;;32.95;13.20;;;0.00;1.00;;;;;;5033304;28;20762;-74
2023/01/26 01:41:09;;;;;;;24.65;13.57;;;0.00;1.00;;;;;;5034794;28;20164;-74
2023/01/26 01:43:36;;;;;;;34.40;15.93;;;0.10;1.00;;;;;;5052890;28;20167;-72
2023/01/26 01:46:10;;;;;;;29.35;13.32;;;0.10;1.00;;;;;;5052031;28;20248;-67
2023/01/26 01:48:42;;;;;;;29.98;12.70;;;0.00;1.00;;;;;;5046991;28;20258;-74
2023/01/26 01:51:15;;;;;;;27.77;12.88;;;0.00;1.00;;;;;;5033029;28;20164;-66
2023/01/26 01:53:44;;;;;;;30.23;15.35;;;0.00;1.00;;;;;;5032188;28;20210;-67
2023/01/26 01:56:17;;;;;;;32.67;13.10;;;0.10;1.00;;;;;;5032013;28;20189;-74
2023/01/26 01:58:44;;;;;;;25.95;12.82;;;0.10;1.00;;;;;;5034568;28;20179;-68
2023/01/26 02:01:11;;;;;;;19.02;12.07;;;0.00;1.00;;;;;;5039489;28;20167;-67
2023/01/26 02:03:37;;;;;;;21.90;11.15;;;0.00;1.00;;;;;;5045477;28;20585;-73
2023/01/26 02:06:06;;;;;;;33.92;12.68;;;0.00;1.00;;;;;;5042786;28;20227;-74
2023/01/26 02:08:43;;;;;;;29.02;13.55;;;0.00;1.00;;;;;;5039422;28;20174;-67
2023/01/26 02:11:35;;;;;;;31.92;11.73;;;0.00;1.00;;;;;;5037660;28;20188;-71
2023/01/26 02:14:07;;;;;;;15.95;10.82;;;0.10;1.00;;;;;;5038372;28;20225;-72
2023/01/26 02:16:33;;;;;;;27.30;14.02;;;0.10;1.00;;;;;;5038718;28;20573;-73
2023/01/26 02:18:59;;;;;;;28.40;13.98;;;0.10;1.00;;;;;;5038856;28;20159;-75
2023/01/26 02:21:25;;;;;;;27.58;13.18;;;0.10;1.00;;;;;;5038589;28;20244;-67
2023/01/26 02:24:07;;;;;;;26.07;11.50;;;0.20;1.00;;;;;;5039366;28;20623;-68
2023/01/26 02:26:34;;;;;;;30.27;14.20;;;0.20;1.00;;;;;;5038691;28;20398;-74
2023/01/26 02:29:01;;;;;;;19.77;12.27;;;0.20;1.00;;;;;;5039246;28;20521;-67
2023/01/26 02:31:28;;;;;;;24.83;14.32;;;0.20;1.00;;;;;;5039147;28;20179;-74
2023/01/26 02:33:54;;;;;;;26.88;12.77;;;0.20;1.00;;;;;;5042155;28;20217;-71
2023/01/26 02:36:26;;;;;;;19.57;11.37;;;0.30;1.00;;;;;;5057259;28;20291;-70
2023/01/26 02:39:10;;;;;;;28.35;12.32;;;0.30;1.00;;;;;;5058269;28;20246;-67
2023/01/26 02:44:40;;;;;;;26.08;11.40;;;0.30;1.00;;;;;;5035895;28;20720;-67
2023/01/26 02:47:17;;;;;;;27.52;10.65;;;0.30;1.00;;;;;;5055125;28;20241;-74
2023/01/26 02:49:48;;;;;;;26.75;12.50;;;0.40;1.00;;;;;;5049869;28;20648;-74
2023/01/26 02:52:14;;;;;;;22.63;12.60;;;0.50;1.00;;;;;;5038983;28;20174;-67
2023/01/26 02:57:25;;;;;;;23.92;10.60;;;0.40;1.00;;;;;;5038536;28;20171;-72
2023/01/26 02:59:51;;;;;;;18.60;11.32;;;0.40;1.00;;;;;;5058248;28;20185;-70
2023/01/26 03:02:17;;;;;;;19.27;10.57;;;0.30;1.00;;;;;;5058972;28;20171;-74
2023/01/26 03:04:43;;;;;;;17.13;9.57;;;0.40;1.00;;;;;;5057802;28;20817;-67
2023/01/26 03:07:09;;;;;;;19.52;9.63;;;0.40;1.00;;;;;;5052234;28;20464;-74
2023/01/26 03:09:35;;;;;;;19.17;10.20;;;0.50;1.00;;;;;;5058757;28;20249;-68
2023/01/26 03:12:01;;;;;;;20.63;11.33;;;0.50;1.00;;;;;;5054559;28;20215;-74
2023/01/26 03:14:26;;;;;;;24.30;9.47;;;0.50;1.00;;;;;;5054753;28;20289;-74
2023/01/26 03:16:52;;;;;;;16.53;8.40;;;0.50;1.00;;;;;;5055651;28;20492;-67
2023/01/26 03:27:37;;;;;;;21.58;10.13;;;0.40;1.00;;;;;;5055466;28;20253;-74
2023/01/26 03:30:03;;;;;;;14.23;8.02;;;0.40;1.00;;;;;;5049496;28;20322;-67
2023/01/26 03:32:28;;;;;;;22.07;9.80;;;0.50;1.00;;;;;;5055245;28;20249;-68
2023/01/26 03:34:54;;;;;;;18.97;9.70;;;0.50;1.00;;;;;;5052359;28;20445;-67
2023/01/26 03:37:21;;;;;;;19.10;9.67;;;0.50;1.00;;;;;;5055200;28;20197;-75
2023/01/26 03:56:21;;;;;;;20.52;9.60;;;0.60;1.00;;;;;;5034393;28;20245;-74
2023/01/26 03:58:55;;;;;;;13.45;8.27;;;0.60;1.00;;;;;;5044518;28;20174;-67
2023/01/26 04:01:26;;;;;;;18.38;10.70;;;0.60;1.00;;;;;;5054621;28;20166;-68
2023/01/26 04:09:26;;;;;;;24.95;10.30;;;0.70;1.00;;;;;;5054730;28;20248;-67
2023/01/26 04:11:51;;;;;;;16.08;9.82;;;0.70;1.00;;;;;;5054752;28;20582;-75
2023/01/26 04:22:42;;;;;;;17.92;9.40;;;0.60;1.00;;;;;;5054217;28;20224;-68
2023/01/26 04:25:08;;;;;;;19.02;8.95;;;0.50;1.00;;;;;;5052257;28;20198;-75
2023/01/26 04:27:34;;;;;;;24.73;11.38;;;0.50;1.00;;;;;;5054331;28;20163;-74
2023/01/26 04:30:02;;;;;;;17.50;10.77;;;0.50;1.00;;;;;;5039260;28;20245;-75
2023/01/26 04:32:28;;;;;;;15.25;9.93;;;0.60;1.00;;;;;;5034403;28;20187;-67
2023/01/26 04:34:54;;;;;;;20.98;9.55;;;0.60;1.00;;;;;;5040266;28;20240;-75
2023/01/26 04:37:20;;;;;;;16.40;10.07;;;0.60;1.00;;;;;;5054043;28;20266;-67
2023/01/26 04:39:45;;;;;;;20.73;10.07;;;0.50;1.00;;;;;;5053845;28;20681;-67
2023/01/26 04:42:11;;;;;;;16.30;9.20;;;0.50;1.00;;;;;;5054051;28;20191;-75
2023/01/26 04:44:37;;;;;;;23.60;11.40;;;0.60;1.00;;;;;;5052119;28;20191;-74
2023/01/26 04:47:03;;;;;;;19.80;9.43;;;0.60;1.00;;;;;;5052115;28;20786;-75
2023/01/26 04:49:29;;;;;;;18.27;10.50;;;0.70;1.00;;;;;;5053979;28;20182;-75
2023/01/26 04:51:54;;;;;;;15.63;9.53;;;0.70;1.00;;;;;;5042570;28;20182;-69
2023/01/26 04:54:20;;;;;;;17.67;11.23;;;0.70;1.00;;;;;;5052805;28;20558;-68
2023/01/26 04:56:46;;;;;;;22.20;9.70;;;0.80;1.00;;;;;;5053400;28;20509;-68
2023/01/26 04:59:12;;;;;;;15.30;9.17;;;0.80;1.00;;;;;;5053657;28;20167;-68
2023/01/26 05:01:38;;;;;;;13.55;9.70;;;0.80;1.00;;;;;;5053812;28;20163;-75
2023/01/26 05:04:04;;;;;;;18.67;10.50;;;0.80;1.00;;;;;;5053483;28;20559;-67
2023/01/26 05:06:30;;;;;;;14.57;9.40;;;0.70;1.00;;;;;;5052013;28;20171;-67
2023/01/26 05:08:57;;;;;;;14.73;8.15;;;0.70;1.00;;;;;;5053575;28;20187;-68
2023/01/26 05:11:23;;;;;;;12.68;8.23;;;0.80;1.00;;;;;;5053452;28;20170;-67
2023/01/26 05:13:48;;;;;;;16.90;8.93;;;0.80;1.00;;;;;;5053058;28;20690;-75
2023/01/26 05:16:15;;;;;;;13.03;8.00;;;0.70;1.00;;;;;;5051187;28;20433;-75
2023/01/26 05:18:41;;;;;;;16.75;9.73;;;0.80;1.00;;;;;;5052304;28;20170;-75
2023/01/26 05:21:08;;;;;;;18.52;9.20;;;0.80;1.00;;;;;;5053236;28;20217;-69
2023/01/26 05:23:33;;;;;;;14.60;8.13;;;0.80;1.00;;;;;;5039012;28;20245;-75
2023/01/26 05:25:59;;;;;;;14.50;9.37;;;0.90;1.00;;;;;;5032536;28;20282;-67
2023/01/26 05:28:25;;;;;;;14.50;9.10;;;0.90;1.00;;;;;;5032093;28;20259;-75
2023/01/26 05:30:51;;;;;;;13.50;8.50;;;0.80;1.00;;;;;;5033293;28;20171;-75
2023/01/26 05:33:20;;;;;;;17.57;9.17;;;0.80;1.00;;;;;;5034551;28;20195;-75
2023/01/26 05:35:48;;;;;;;13.23;7.85;;;0.80;1.00;;;;;;5049843;28;20873;-75
2023/01/26 05:38:14;;;;;;;13.23;8.68;;;0.80;1.00;;;;;;5051865;28;20563;-75
2023/01/26 05:40:39;;;;;;;12.75;9.50;;;0.70;1.00;;;;;;5053101;28;20170;-67
2023/01/26 05:43:07;;;;;;;14.70;9.20;;;0.70;1.00;;;;;;5053108;28;20171;-68
2023/01/26 05:45:33;;;;;;;13.38;8.18;;;0.60;1.00;;;;;;5051976;28;20686;-75
2023/01/26 05:47:59;;;;;;;17.42;9.32;;;0.60;1.00;;;;;;5052006;28;20182;-68
2023/01/26 05:50:25;;;;;;;21.37;10.57;;;0.70;1.00;;;;;;5052787;28;20162;-75
2023/01/26 05:52:50;;;;;;;17.03;7.80;;;0.60;1.00;;;;;;5052907;28;20210;-75
2023/01/26 05:55:16;;;;;;;12.80;8.30;;;0.60;1.00;;;;;;5051928;28;20424;-68
2023/01/26 05:57:42;;;;;;;18.63;9.07;;;0.50;1.00;;;;;;5052921;28;20616;-75
2023/01/26 06:00:08;;;;;;;17.90;9.47;;;0.50;1.00;;;;;;5052930;28;20578;-67
2023/01/26 06:02:34;;;;;;;21.58;10.65;;;0.60;1.00;;;;;;5051864;28;20171;-73
2023/01/26 06:05:00;;;;;;;14.00;8.80;;;0.70;1.00;;;;;;5052018;28;20183;-67
2023/01/26 06:07:25;;;;;;;15.80;8.80;;;0.70;3.60;;;;;;5052745;28;20523;-70
2023/01/26 06:09:52;;;;;;;12.77;8.27;;;0.60;1.40;;;;;;5052691;28;20171;-69
2023/01/26 06:12:20;;;;;;;12.93;8.15;;;0.60;9.70;;;;;;5052795;28;20249;-67
2023/01/26 06:14:45;;;;;;;17.80;10.20;;;0.70;26.70;;;;;;5050763;28;20203;-75
2023/01/26 06:17:13;;;;;;;18.20;9.07;;;0.70;36.70;;;;;;5052657;28;20167;-75
2023/01/26 06:19:39;;;;;;;14.23;8.97;;;0.80;45.40;;;;;;5051390;28;20563;-75
2023/01/26 06:22:12;;;;;;;24.67;10.00;;;0.90;63.60;;;;;;5052661;28;20397;-73
2023/01/26 06:24:37;;;;;;;18.23;9.60;;;1.00;74.40;;;;;;5050454;28;20312;-66
2023/01/26 06:27:05;;;;;;;11.50;8.97;;;1.10;74.50;;;;;;5052543;28;20679;-75
2023/01/26 06:29:32;;;;;;;14.10;8.63;;;1.00;74.30;;;;;;5051393;28;20250;-74
2023/01/26 06:31:59;;;;;;;13.80;8.18;;;1.00;71.20;;;;;;5052501;28;20167;-68
2023/01/26 06:34:25;;;;;;;16.77;11.25;;;0.90;74.30;;;;;;5051607;28;20599;-68
2023/01/26 06:36:51;;;;;;;15.73;9.93;;;1.00;74.40;;;;;;5052466;28;20190;-68
2023/01/26 06:39:17;;;;;;;19.67;9.77;;;1.00;71.80;;;;;;5052525;28;20163;-75
2023/01/26 06:41:43;;;;;;;14.77;8.77;;;1.00;74.40;;;;;;5051255;28;20171;-70
2023/01/26 06:44:09;;;;;;;17.20;8.90;;;1.00;68.80;;;;;;5032148;28;20660;-75
2023/01/26 06:46:35;;;;;;;21.00;11.02;;;1.00;67.50;;;;;;5043788;28;20187;-69
2023/01/26 06:49:02;;;;;;;16.52;9.63;;;1.10;69.40;;;;;;5056355;28;20170;-68
2023/01/26 06:51:37;;;;;;;18.35;9.98;;;1.00;59.90;;;;;;5055157;28;20178;-75
2023/01/26 06:54:03;;;;;;;17.23;10.35;;;1.00;55.80;;;;;;5055683;28;20198;-68
2023/01/26 06:56:28;;;;;;;21.97;10.70;;;1.00;53.20;;;;;;5047789;28;20195;-67
2023/01/26 06:58:54;;;;;;;14.87;9.00;;;1.00;59.30;;;;;;5036147;28;20164;-67
2023/01/26 07:01:22;;;;;;;21.60;10.63;;;1.10;62.70;;;;;;5036149;28;20226;-75
2023/01/26 07:03:48;;;;;;;19.90;10.48;;;1.10;55.40;;;;;;5035808;28;20167;-75
2023/01/26 07:06:14;;;;;;;21.97;10.00;;;1.00;54.80;;;;;;5034966;28;20237;-67
2023/01/26 07:08:40;;;;;;;18.77;10.00;;;1.10;64.30;;;;;;5035887;28;20399;-75
2023/01/26 07:11:07;;;;;;;16.73;10.17;;;1.20;74.40;;;;;;5035485;28;20536;-75
2023/01/26 07:13:33;;;;;;;18.70;10.77;;;1.20;68.20;;;;;;5035739;28;20914;-67
2023/01/26 07:16:03;;;;;;;24.33;9.40;;;1.10;57.80;;;;;;5034854;28;20235;-75
2023/01/26 07:18:29;;;;;;;29.40;14.33;;;1.10;61.10;;;;;;5035796;28;20160;-68
2023/01/26 07:21:06;;;;;;;18.93;10.10;;;1.20;63.90;;;;;;5034740;28;20984;-76
2023/01/26 07:23:31;;;;;;;25.55;11.35;;;1.20;63.80;;;;;;5035306;28;20636;-75
2023/01/26 07:25:58;;;;;;;16.10;10.63;;;1.30;64.00;;;;;;5033084;28;20200;-68
2023/01/26 07:28:24;;;;;;;19.15;10.60;;;1.30;64.00;;;;;;5035575;28;20163;-68
2023/01/26 07:30:51;;;;;;;20.85;11.23;;;1.20;53.40;;;;;;5035529;28;20540;-68
2023/01/26 07:33:17;;;;;;;24.90;11.80;;;1.20;60.50;;;;;;5035426;28;20206;-68
2023/01/26 07:35:43;;;;;;;20.80;11.40;;;1.20;56.70;;;;;;5034459;28;20390;-68
2023/01/26 07:38:08;;;;;;;18.50;10.27;;;1.20;55.90;;;;;;5037281;28;20516;-74
2023/01/26 07:40:34;;;;;;;19.37;9.50;;;1.20;50.20;;;;;;5053757;28;20229;-74
2023/01/26 07:43:00;;;;;;;29.70;13.10;;;1.10;45.80;;;;;;5055230;28;20216;-67
2023/01/26 07:45:26;;;;;;;19.10;10.97;;;1.10;43.20;;;;;;5041193;28;20290;-68
2023/01/26 07:47:55;;;;;;;18.60;9.80;;;1.10;53.20;;;;;;5034058;28;20540;-74
2023/01/26 07:50:21;;;;;;;19.40;10.48;;;1.20;60.10;;;;;;5033776;28;20414;-68
2023/01/26 07:52:47;;;;;;;21.90;12.57;;;1.30;65.30;;;;;;5035044;28;20210;-75
2023/01/26 07:55:14;;;;;;;17.70;10.53;;;1.30;62.80;;;;;;5033726;28;20425;-74
2023/01/26 07:57:40;;;;;;;28.52;11.75;;;1.40;72.70;;;;;;5034499;28;20407;-75
2023/01/26 08:00:07;;;;;;;22.50;12.53;;;1.30;66.10;;;;;;5034429;28;20184;-75
2023/01/26 08:02:32;;;;;;;22.27;11.87;;;1.30;70.20;;;;;;5033532;28;20973;-70
2023/01/26 08:04:59;;;;;;;23.43;11.63;;;1.40;74.70;;;;;;5033920;28;20427;-75
2023/01/26 08:07:25;;;;;;;24.30;11.73;;;1.50;74.80;;;;;;5034708;28;20254;-75
2023/01/26 08:09:50;;;;;;;22.10;12.10;;;1.40;74.70;;;;;;5034702;28;20434;-69
2023/01/26 08:12:17;;;;;;;20.33;11.37;;;1.50;74.80;;;;;;5033337;28;20449;-75
2023/01/26 08:14:42;;;;;;;21.70;10.73;;;1.50;74.70;;;;;;5045782;28;20214;-69
2023/01/26 08:17:08;;;;;;;31.00;12.63;;;1.40;68.20;;;;;;5053438;28;20405;-68
2023/01/26 08:19:34;;;;;;;28.53;12.50;;;1.40;74.20;;;;;;5054537;28;20221;-68
2023/01/26 08:21:59;;;;;;;18.63;11.03;;;1.40;74.70;;;;;;5054516;28;20171;-75
2023/01/26 08:24:26;;;;;;;18.67;11.63;;;1.60;82.70;;;;;;5053437;28;20259;-69
2023/01/26 08:26:53;;;;;;;24.33;11.17;;;1.60;87.30;;;;;;5048597;28;20186;-75
2023/01/26 08:29:19;;;;;;;22.30;11.17;;;1.60;85.80;;;;;;5034449;28;20485;-68
2023/01/26 08:31:45;;;;;;;21.47;10.93;;;1.60;85.50;;;;;;5034445;28;21026;-68
2023/01/26 08:34:11;;;;;;;24.63;12.07;;;1.60;90.90;;;;;;5033606;28;20541;-75
2023/01/26 08:36:38;;;;;;;20.47;10.63;;;1.60;89.20;;;;;;5033567;28;20479;-75
2023/01/26 08:39:04;;;;;;;23.03;11.90;;;1.70;92.10;;;;;;5034385;28;20171;-68
2023/01/26 08:41:31;;;;;;;24.30;12.33;;;1.70;92.20;;;;;;5037526;28;20422;-75
2023/01/26 08:43:58;;;;;;;20.70;10.37;;;1.70;91.70;;;;;;5052767;28;20642;-75
2023/01/26 08:46:26;;;;;;;27.43;11.73;;;1.70;90.00;;;;;;5052246;28;20964;-76
2023/01/26 08:48:52;;;;;;;24.47;11.17;;;1.70;89.00;;;;;;5052676;28;20914;-69
2023/01/26 08:51:18;;;;;;;24.03;12.17;;;1.70;91.90;;;;;;5053815;28;20409;-70
2023/01/26 08:53:44;;;;;;;25.70;11.50;;;1.80;95.50;;;;;;5052770;28;20539;-69
2023/01/26 08:56:11;;;;;;;24.50;12.90;;;1.80;93.90;;;;;;5042709;28;20195;-70
2023/01/26 08:58:37;;;;;;;22.40;11.37;;;1.80;94.10;;;;;;5053569;28;20444;-75
2023/01/26 09:01:10;;;;;;;22.07;11.43;;;1.90;95.00;;;;;;5046419;28;20414;-75
2023/01/26 09:03:36;;;;;;;24.43;10.90;;;1.80;91.40;;;;;;5033599;28;20406;-76
2023/01/26 09:06:03;;;;;;;19.83;10.70;;;1.80;91.60;;;;;;5044262;28;20441;-76
2023/01/26 09:08:29;;;;;;;24.73;12.23;;;1.90;94.60;;;;;;5031357;28;20525;-77
2023/01/26 09:10:55;;;;;;;21.47;11.57;;;2.00;97.70;;;;;;5032429;28;21023;-69
2023/01/26 09:13:21;;;;;;;20.73;13.00;;;2.00;99.30;;;;;;5032808;28;20508;-77
2023/01/26 09:15:47;;;;;;;31.17;11.53;;;2.00;99.10;;;;;;5043127;28;20436;-76
2023/01/26 09:18:13;;;;;;;23.77;10.80;;;2.00;96.00;;;;;;5036853;28;20988;-76
2023/01/26 09:20:39;;;;;;;21.57;10.53;;;2.00;94.30;;;;;;5031959;28;20190;-70
2023/01/26 09:23:05;;;;;;;24.70;12.10;;;1.90;93.30;;;;;;5047451;28;20542;-69
2023/01/26 09:25:31;;;;;;;20.07;10.30;;;1.90;92.20;;;;;;5050785;28;20436;-70
2023/01/26 09:27:57;;;;;;;27.90;10.97;;;1.90;91.30;;;;;;5038727;28;20422;-76
2023/01/26 09:30:26;;;;;;;29.87;10.77;;;2.00;91.10;;;;;;5032785;28;20183;-76
2023/01/26 09:32:52;;;;;;;20.13;9.77;;;2.00;92.50;;;;;;5043033;28;20587;-76
2023/01/26 09:35:18;;;;;;;15.23;10.53;;;2.00;93.20;;;;;;5051805;28;20516;-69
2023/01/26 09:37:43;;;;;;;24.03;12.30;;;2.10;93.40;;;;;;5042927;28;20497;-70
2023/01/26 09:40:36;;;;;;;23.77;11.70;;;2.10;94.00;;;;;;5041163;28;20433;-70
2023/01/26 09:43:10;;;;;;;24.37;10.10;;;2.00;92.20;;;;;;5050641;28;20647;-75
2023/01/26 09:45:59;;;;;;;23.53;9.90;;;2.00;91.10;;;;;;5050535;28;20421;-70
2023/01/26 09:49:06;;;;;;;17.77;10.03;;;2.00;86.60;;;;;;5036919;28;20552;-75
2023/01/26 09:51:50;;;;;;;20.03;10.03;;;2.00;91.20;;;;;;5032157;28;20875;-69
2023/01/26 09:54:35;;;;;;;29.93;10.37;;;2.10;94.20;;;;;;5032488;28;20511;-75
2023/01/26 09:57:13;;;;;;;21.90;12.23;;;2.20;96.50;;;;;;5033544;28;20513;-76
2023/01/26 10:00:10;;;;;;;25.80;11.17;;;2.20;97.60;;;;;;5051558;28;20405;-70
2023/01/26 10:02:41;;;;;;;19.73;9.47;;;2.20;97.20;;;;;;5048071;28;20869;-71
2023/01/26 10:05:18;;;;;;;23.03;10.77;;;2.30;99.10;;;;;;5049904;28;20772;-70
2023/01/26 10:07:44;;;;;;;20.77;10.33;;;2.30;99.90;;;;;;5047096;28;20425;-75
2023/01/26 10:10:23;;;;;;;34.73;13.73;;;2.30;96.30;;;;;;5045382;28;20415;-75
2023/01/26 10:12:50;;;;;;;25.57;11.07;;;2.30;98.30;;;;;;5051461;28;20532;-77
2023/01/26 10:15:40;;;;;;;26.47;11.73;;;2.40;99.80;;;;;;5050645;28;20425;-73
2023/01/26 10:18:20;;;;;;;24.33;11.70;;;2.40;99.90;;;;;;5032048;28;20998;-76
2023/01/26 10:20:50;;;;;;;17.40;9.03;;;2.50;99.90;;;;;;5037698;28;20768;-72
2023/01/26 10:23:23;;;;;;;20.17;10.30;;;2.50;99.90;;;;;;5036263;28;20453;-72
2023/01/26 10:25:51;;;;;;;24.30;11.60;;;2.50;99.70;;;;;;5046317;28;20794;-76
2023/01/26 10:28:34;;;;;;;27.10;10.53;;;2.50;99.90;;;;;;5047591;28;20422;-76
2023/01/26 10:31:02;;;;;;;31.73;10.57;;;2.50;99.10;;;;;;5050386;28;20802;-76
2023/01/26 10:33:36;;;;;;;19.83;10.13;;;2.50;99.50;;;;;;5047543;28;20529;-72
2023/01/26 10:36:05;;;;;;;15.27;10.07;;;2.40;95.20;;;;;;5045410;28;20465;-74
2023/01/26 10:38:36;;;;;;;18.50;9.77;;;2.40;98.00;;;;;;5047834;28;20933;-73
2023/01/26 10:41:03;;;;;;;21.10;12.10;;;2.50;99.90;;;;;;5036382;28;20548;-71
2023/01/26 10:43:36;;;;;;;27.40;12.97;;;2.60;99.90;;;;;;5044948;28;20421;-74
2023/01/26 10:46:03;;;;;;;24.10;11.40;;;2.70;99.90;;;;;;5055055;28;20756;-72
2023/01/26 10:48:29;;;;;;;22.40;12.57;;;2.70;99.90;;;;;;5045395;28;20903;-76
2023/01/26 10:51:14;;;;;;;21.40;11.60;;;2.70;99.90;;;;;;5035433;28;20433;-69
2023/01/26 10:53:40;;;;;;;24.17;10.57;;;2.70;99.90;;;;;;5038166;28;20462;-69
2023/01/26 10:56:13;;;;;;;26.60;11.77;;;2.70;99.90;;;;;;5035029;28;20430;-72
2023/01/26 10:59:00;;;;;;;25.67;11.37;;;2.80;99.90;;;;;;5049028;28;20217;-71
2023/01/26 11:01:26;;;;;;;29.20;12.90;;;2.80;99.90;;;;;;5055347;28;20921;-68
2023/01/26 11:04:11;;;;;;;21.73;13.33;;;2.90;99.90;;;;;;5038569;28;20500;-71
2023/01/26 11:06:37;;;;;;;31.40;13.33;;;2.90;99.90;;;;;;5035413;28;20168;-71
2023/01/26 11:09:26;;;;;;;26.00;12.07;;;2.90;99.90;;;;;;5052428;28;20504;-75
2023/01/26 11:11:56;;;;;;;21.33;11.27;;;2.90;99.90;;;;;;5054859;28;20495;-72
2023/01/26 11:14:22;;;;;;;23.83;11.77;;;2.90;99.90;;;;;;5035605;28;21068;-71
2023/01/26 11:17:04;;;;;;;24.20;11.67;;;3.00;99.90;;;;;;5034654;28;20497;-72
2023/01/26 11:20:01;;;;;;;27.80;11.70;;;3.00;99.90;;;;;;5054162;28;20913;-72
2023/01/26 11:22:40;;;;;;;21.13;11.87;;;3.00;99.90;;;;;;5053683;28;20401;-74
2023/01/26 11:25:29;;;;;;;25.17;12.67;;;3.00;99.90;;;;;;5033364;28;20519;-72
2023/01/26 11:28:30;;;;;;;19.13;10.50;;;3.10;99.90;;;;;;5039875;28;21035;-71
2023/01/26 11:31:34;;;;;;;20.83;10.40;;;3.10;99.90;;;;;;5055057;28;20412;-71
2023/01/26 11:34:18;;;;;;;24.57;11.80;;;3.10;99.90;;;;;;5048639;28;20466;-74
2023/01/26 11:37:05;;;;;;;21.87;9.83;;;3.20;99.90;;;;;;5035134;28;20422;-71
2023/01/26 11:39:40;;;;;;;27.13;10.67;;;3.30;99.90;;;;;;5049819;28;20902;-73
2023/01/26 11:42:25;;;;;;;21.27;12.23;;;3.40;99.90;;;;;;5035349;28;20404;-74
2023/01/26 11:45:16;;;;;;;23.63;13.00;;;3.50;99.90;;;;;;5052723;28;20994;-75
2023/01/26 11:48:09;;;;;;;23.60;12.57;;;3.60;99.90;;;;;;5054711;28;20402;-74
2023/01/26 11:50:43;;;;;;;16.43;8.77;;;3.60;99.90;;;;;;5035213;28;20425;-73
2023/01/26 11:53:29;;;;;;;18.77;10.37;;;3.70;99.90;;;;;;5039522;28;20540;-74
2023/01/26 11:56:01;;;;;;;17.80;9.40;;;3.80;99.90;;;;;;5053843;28;20798;-76
2023/01/26 11:58:50;;;;;;;21.20;9.40;;;3.80;99.90;;;;;;5045525;28;20499;-73
2023/01/26 12:01:27;;;;;;;16.57;8.73;;;4.00;99.90;;;;;;5035014;28;20410;-73
2023/01/26 12:03:55;;;;;;;37.50;9.90;;;4.00;99.90;;;;;;5046693;28;20428;-74
2023/01/26 12:06:30;;;;;;;19.57;8.27;;;4.00;99.90;;;;;;5053830;28;20415;-73
2023/01/26 12:09:19;;;;;;;14.53;8.53;;;4.00;99.90;;;;;;5052199;28;20432;-75
2023/01/26 12:12:25;;;;;;;21.37;8.23;;;4.10;99.90;;;;;;5054701;28;20394;-75
2023/01/26 12:15:09;;;;;;;18.23;9.00;;;4.20;99.90;;;;;;5033122;28;20477;-74
2023/01/26 12:17:35;;;;;;;16.93;6.67;;;4.20;99.90;;;;;;5037435;28;20911;-75
2023/01/26 12:20:26;;;;;;;11.70;7.07;;;4.30;99.90;;;;;;5054686;28;20394;-73
2023/01/26 12:23:01;;;;;;;15.83;8.27;;;4.30;99.90;;;;;;5048192;28;20673;-75
2023/01/26 12:25:33;;;;;;;15.13;7.23;;;4.40;99.90;;;;;;5053592;28;20476;-73
2023/01/26 12:28:14;;;;;;;17.43;8.53;;;4.40;99.90;;;;;;5048166;28;20411;-76
2023/01/26 12:31:17;;;;;;;19.47;5.90;;;4.40;99.90;;;;;;5054294;28;20485;-73
2023/01/26 12:33:43;;;;;;;8.57;5.20;;;4.30;99.90;;;;;;5033709;28;20533;-75
2023/01/26 12:36:33;;;;;;;19.07;6.00;;;4.30;99.90;;;;;;5034565;28;20617;-75
2023/01/26 12:38:58;;;;;;;10.63;5.10;;;4.30;99.90;;;;;;5054098;28;20402;-73
2023/01/26 12:41:44;;;;;;;10.10;5.33;;;4.30;99.90;;;;;;5050475;28;20413;-75
2023/01/26 12:44:19;;;;;;;7.97;4.50;;;4.30;99.90;;;;;;5053236;28;20267;-74
2023/01/26 12:46:51;;;;;;;21.57;7.10;;;4.30;99.90;;;;;;5048017;28;20922;-75
2023/01/26 12:49:25;;;;;;;16.67;5.53;;;4.20;99.90;;;;;;5037021;28;20524;-75
2023/01/26 12:51:56;;;;;;;13.27;5.33;;;4.20;99.90;;;;;;5047264;28;20430;-72
2023/01/26 12:54:51;;;;;;;8.90;5.33;;;4.30;99.90;;;;;;5032134;28;20982;-73
2023/01/26 12:57:23;;;;;;;17.17;4.63;;;4.30;99.90;;;;;;5041406;28;20425;-73
2023/01/26 12:59:50;;;;;;;10.33;4.80;;;4.40;99.90;;;;;;5052834;28;20412;-75
2023/01/26 13:02:26;;;;;;;21.20;5.83;;;4.30;99.90;;;;;;5045549;28;20424;-73
2023/01/26 13:04:52;;;;;;;6.80;4.40;;;4.40;99.90;;;;;;5037416;28;20462;-73
2023/01/26 13:07:41;;;;;;;10.10;3.90;;;4.60;99.90;;;;;;5041901;28;20419;-75
2023/01/26 13:10:13;;;;;;;5.30;3.33;;;4.60;99.90;;;;;;5035152;28;20435;-74
2023/01/26 13:12:58;;;;;;;8.97;3.97;;;4.60;99.90;;;;;;5046811;28;20424;-75
2023/01/26 13:15:30;;;;;;;10.53;3.70;;;4.60;99.90;;;;;;5051139;28;20469;-75
2023/01/26 13:18:03;;;;;;;11.03;3.37;;;4.60;99.90;;;;;;5037847;28;20428;-74
2023/01/26 13:20:47;;;;;;;9.97;3.77;;;4.60;99.90;;;;;;5032900;28;20436;-75
2023/01/26 13:23:39;;;;;;;12.60;4.30;;;4.50;99.90;;;;;;5050144;28;20530;-74
2023/01/26 13:26:20;;;;;;;11.07;4.40;;;4.50;99.90;;;;;;5030744;28;20830;-73
2023/01/26 13:28:47;;;;;;;15.77;4.07;;;4.50;99.90;;;;;;5032711;28;20547;-73
2023/01/26 13:31:27;;;;;;;4.13;3.73;;;4.40;99.90;;;;;;5033449;28;20982;-72
2023/01/26 13:33:53;;;;;;;13.17;5.87;;;4.40;99.90;;;;;;5033159;28;20462;-71
2023/01/26 13:36:21;;;;;;;8.57;4.93;;;4.50;99.90;;;;;;5032063;28;20834;-73
2023/01/26 13:38:58;;;;;;;10.27;5.60;;;4.40;99.90;;;;;;5033125;28;20410;-75
2023/01/26 13:41:24;;;;;;;8.13;4.70;;;4.40;99.90;;;;;;5036679;28;20438;-75
2023/01/26 13:44:03;;;;;;;7.10;4.00;;;4.40;99.90;;;;;;5032540;28;20487;-73
2023/01/26 13:46:42;;;;;;;7.10;5.20;;;4.30;99.90;;;;;;5045789;28;20233;-74